Time;durP1;ratioP1;P1;durP2;ratioP2;P2;SDS_P1;SDS_P2;PMS_P1;PMS_P2;Temp;Humidity;BMP_temperature;BMP_pressure;BME280_temperature;BME280_humidity;BME280_pressure;Samples;Min_cycle;Max_cycle;Signal;HPM_P1;HPM_P2
2021/01/23 09:11:12;;;;;;;22.40;14.83;;;;;;;2.14;100.00;97265.22;5185034;27;20555;-85
2021/01/23 09:13:39;;;;;;;22.20;15.60;;;;;;;2.50;100.00;97244.91;5164409;27;39820;-82
2021/01/23 09:16:07;;;;;;;22.30;14.43;;;;;;;3.17;100.00;97275.06;5149211;27;41045;-80
2021/01/23 09:18:35;;;;;;;21.03;14.30;;;;;;;3.41;100.00;97251.00;5147845;27;42230;-82
2021/01/23 09:21:02;;;;;;;17.90;12.50;;;;;;;3.77;100.00;97254.03;5161148;27;42984;-89
2021/01/23 09:23:29;;;;;;;16.10;13.17;;;;;;;3.90;100.00;97252.34;5135236;27;39026;-83
2021/01/23 09:25:57;;;;;;;19.20;12.63;;;;;;;4.12;100.00;97245.75;5134644;27;41059;-82
2021/01/23 09:28:27;;;;;;;14.43;11.93;;;;;;;4.33;99.16;97268.00;5151790;27;42346;-82
2021/01/23 09:30:55;;;;;;;14.83;11.13;;;;;;;4.42;96.00;97256.94;5169036;27;42271;-83
2021/01/23 09:33:22;;;;;;;15.10;11.30;;;;;;;4.55;93.67;97246.53;5146507;27;40215;-91
2021/01/23 09:35:49;;;;;;;14.43;11.20;;;;;;;4.71;92.14;97257.69;5144342;27;41468;-80
2021/01/23 09:38:16;;;;;;;21.23;12.90;;;;;;;4.77;90.89;97241.56;5148241;27;42573;-84
2021/01/23 09:40:43;;;;;;;16.33;12.70;;;;;;;4.90;90.48;97236.38;5112950;27;42248;-86
2021/01/23 09:43:11;;;;;;;16.70;11.57;;;;;;;4.98;89.58;97224.44;5113045;27;39286;-85
2021/01/23 09:45:39;;;;;;;14.33;10.97;;;;;;;5.17;89.15;97225.84;5130436;27;41780;-87
2021/01/23 09:48:07;;;;;;;13.47;10.77;;;;;;;5.34;88.03;97236.03;5150317;27;42386;-87
2021/01/23 09:50:34;;;;;;;13.53;11.00;;;;;;;5.37;86.89;97228.81;5114156;27;41538;-81
2021/01/23 09:53:01;;;;;;;12.03;10.20;;;;;;;5.54;86.75;97230.28;5133605;27;40130;-83
2021/01/23 09:55:28;;;;;;;13.27;10.63;;;;;;;5.71;85.36;97239.63;5133823;27;42544;-84
2021/01/23 09:57:55;;;;;;;14.90;11.33;;;;;;;5.76;85.46;97232.28;5133999;27;44200;-85
2021/01/23 10:00:22;;;;;;;13.17;11.67;;;;;;;5.66;85.33;97200.56;5149679;27;41979;-80
2021/01/23 10:02:51;;;;;;;14.70;10.60;;;;;;;5.96;84.85;97226.50;5130276;27;40699;-87
2021/01/23 10:05:18;;;;;;;12.53;11.23;;;;;;;6.05;83.95;97231.13;5131295;27;41100;-86
2021/01/23 10:07:45;;;;;;;10.30;9.20;;;;;;;6.11;83.49;97225.44;5131891;27;42881;-81
2021/01/23 10:10:13;;;;;;;11.67;10.23;;;;;;;6.22;82.50;97229.09;5133015;27;43068;-86
2021/01/23 10:12:42;;;;;;;10.70;8.30;;;;;;;6.21;80.39;97237.91;5129944;27;39332;-85
2021/01/23 10:15:10;;;;;;;12.90;9.90;;;;;;;6.13;81.24;97214.81;5147138;27;42463;-89
2021/01/23 10:17:37;;;;;;;10.43;9.43;;;;;;;6.16;79.87;97229.53;5129288;27;42741;-88
2021/01/23 10:20:07;;;;;;;12.13;9.33;;;;;;;6.08;79.27;97228.25;5128740;27;41289;-85
2021/01/23 10:22:35;;;;;;;12.00;8.83;;;;;;;5.94;79.06;97209.16;5115462;27;38495;-84
2021/01/23 10:25:02;;;;;;;11.47;8.70;;;;;;;5.91;78.99;97212.88;5115144;27;41259;-86
2021/01/23 10:27:29;;;;;;;10.77;9.07;;;;;;;5.97;79.75;97217.69;5132067;27;43191;-86
2021/01/23 10:29:57;;;;;;;11.43;9.37;;;;;;;6.11;79.66;97222.81;5117128;27;41220;-83
2021/01/23 10:32:24;;;;;;;11.43;8.93;;;;;;;6.13;79.04;97215.66;5122260;27;40375;-86
2021/01/23 10:34:51;;;;;;;12.97;9.87;;;;;;;6.03;78.89;97201.50;5137476;27;40701;-81
2021/01/23 10:37:20;;;;;;;12.23;9.33;;;;;;;6.09;78.81;97211.56;5154078;27;43374;-87
2021/01/23 10:39:47;;;;;;;10.47;8.93;;;;;;;6.12;78.52;97208.72;5119961;27;42304;-86
2021/01/23 10:42:14;;;;;;;9.27;8.37;;;;;;;6.14;78.32;97195.47;5154975;27;40186;-87
2021/01/23 10:44:41;;;;;;;10.50;8.07;;;;;;;6.24;78.02;97193.03;5138422;27;41613;-85
2021/01/23 10:47:08;;;;;;;8.33;7.53;;;;;;;6.42;78.32;97189.09;5152288;27;42516;-84
2021/01/23 10:49:36;;;;;;;8.70;7.87;;;;;;;6.64;78.21;97181.31;5152844;27;42185;-84
2021/01/23 10:52:04;;;;;;;8.73;7.77;;;;;;;7.11;77.77;97182.19;5119060;27;39523;-81
2021/01/23 10:54:32;;;;;;;6.77;6.13;;;;;;;7.51;75.46;97162.41;5117867;27;42584;-83
2021/01/23 10:57:02;;;;;;;7.57;6.43;;;;;;;8.47;74.11;97185.59;5118779;27;41810;-83
2021/01/23 10:59:29;;;;;;;6.73;6.07;;;;;;;10.24;70.68;97164.41;5118142;27;42283;-86
2021/01/23 11:01:56;;;;;;;5.87;5.23;;;;;;;12.49;65.25;97201.78;5119842;27;39429;-87
2021/01/23 11:04:24;;;;;;;5.37;4.93;;;;;;;13.23;63.09;97204.22;5116257;27;41807;-85
2021/01/23 11:06:51;;;;;;;6.00;4.47;;;;;;;12.47;60.77;97200.28;5118359;27;43244;-83
2021/01/23 11:09:18;;;;;;;4.70;4.20;;;;;;;11.63;61.77;97194.94;5118989;27;41102;-85
2021/01/23 11:11:46;;;;;;;5.53;4.40;;;;;;;10.97;61.84;97208.13;5120283;27;38494;-84
2021/01/23 11:14:13;;;;;;;5.03;4.23;;;;;;;10.94;62.34;97196.97;5136422;27;40778;-83
2021/01/23 11:16:40;;;;;;;4.40;4.00;;;;;;;11.74;61.17;97194.81;5136911;27;41643;-84
2021/01/23 11:19:07;;;;;;;4.17;3.50;;;;;;;11.35;59.79;97159.59;5127575;27;42437;-83
2021/01/23 11:21:35;;;;;;;4.13;3.77;;;;;;;11.03;61.01;97183.72;5137144;27;39285;-85
2021/01/23 11:24:02;;;;;;;6.90;3.40;;;;;;;10.60;62.21;97183.28;5153180;27;42122;-85
2021/01/23 11:26:29;;;;;;;3.67;3.33;;;;;;;10.23;62.95;97181.25;5153731;27;42413;-82
2021/01/23 11:28:57;;;;;;;5.00;3.77;;;;;;;9.88;64.26;97172.88;5119210;27;41049;-87
2021/01/23 11:31:24;;;;;;;4.27;3.43;;;;;;;9.49;65.15;97158.63;5121800;27;39241;-88
2021/01/23 11:33:52;;;;;;;4.23;3.73;;;;;;;9.31;64.86;97166.28;5118133;27;41052;-83
2021/01/23 11:36:20;;;;;;;5.23;4.33;;;;;;;9.05;65.15;97144.69;5153098;27;43470;-81
2021/01/23 11:38:47;;;;;;;5.00;4.30;;;;;;;9.00;66.24;97158.31;5135164;27;41325;-84
2021/01/23 11:41:14;;;;;;;4.93;3.90;;;;;;;8.89;67.37;97155.72;5123024;27;39679;-81
2021/01/23 11:43:41;;;;;;;4.67;4.27;;;;;;;8.81;67.34;97150.22;5114326;27;40886;-85
2021/01/23 11:46:09;;;;;;;5.77;4.43;;;;;;;8.72;67.77;97148.34;5113650;27;43584;-81
2021/01/23 11:48:36;;;;;;;4.87;4.27;;;;;;;8.53;67.80;97135.00;5114499;27;42080;-85
2021/01/23 11:51:04;;;;;;;4.10;3.70;;;;;;;8.51;68.28;97150.13;5114487;27;41068;-87
2021/01/23 11:53:31;;;;;;;4.43;3.97;;;;;;;8.33;68.55;97119.94;5114518;27;41603;-84
2021/01/23 11:55:58;;;;;;;4.40;4.03;;;;;;;8.34;68.91;97135.66;5114540;27;42803;-86
2021/01/23 11:58:25;;;;;;;5.60;4.70;;;;;;;8.26;68.83;97130.97;5113356;27;42268;-83
2021/01/23 12:00:53;;;;;;;5.60;4.63;;;;;;;8.20;69.46;97115.63;5115478;27;39082;-86
2021/01/23 12:03:21;;;;;;;5.53;4.53;;;;;;;8.14;69.55;97121.41;5098506;27;40587;-83
2021/01/23 12:05:48;;;;;;;5.50;4.93;;;;;;;8.05;69.50;97110.75;5098200;27;42918;-84
2021/01/23 12:08:15;;;;;;;5.17;4.10;;;;;;;7.70;69.22;97081.94;5115330;27;42211;-84
2021/01/23 12:10:44;;;;;;;4.60;4.20;;;;;;;7.80;69.28;97117.13;5153344;27;39885;-86
2021/01/23 12:13:11;;;;;;;5.17;4.67;;;;;;;7.72;69.51;97109.84;5175083;27;41715;-87
2021/01/23 12:15:38;;;;;;;4.63;4.20;;;;;;;7.67;69.90;97103.25;5155804;27;42083;-88
2021/01/23 12:18:06;;;;;;;5.67;4.77;;;;;;;7.65;70.14;97113.09;5154062;27;42113;-87
2021/01/23 12:20:34;;;;;;;5.17;4.67;;;;;;;7.52;70.19;97087.72;5144302;27;39043;-86
2021/01/23 12:23:01;;;;;;;6.23;5.27;;;;;;;7.21;70.33;97038.38;5132995;27;42229;-89
2021/01/23 12:25:28;;;;;;;9.27;5.37;;;;;;;7.60;70.56;97062.56;5126781;27;41997;-86
2021/01/23 12:27:56;;;;;;;7.13;4.73;;;;;;;7.75;70.02;97056.06;5151450;27;41149;-85
2021/01/23 12:30:23;;;;;;;6.17;5.53;;;;;;;8.10;69.49;97071.69;5151083;27;39949;-86
2021/01/23 12:32:50;;;;;;;5.80;5.20;;;;;;;8.27;69.21;97072.00;5129833;27;41457;-84
2021/01/23 12:35:20;;;;;;;6.03;5.07;;;;;;;8.29;68.87;97050.75;5116442;27;41790;-86
2021/01/23 12:37:48;;;;;;;5.47;4.27;;;;;;;8.55;68.74;97067.09;5133276;27;42060;-85
2021/01/23 12:40:17;;;;;;;5.83;4.70;;;;;;;8.57;67.98;97065.16;5115634;27;38963;-85
2021/01/23 12:42:44;;;;;;;6.43;5.53;;;;;;;8.59;68.08;97063.25;5133728;27;40746;-84
2021/01/23 12:45:12;;;;;;;5.60;4.13;;;;;;;8.61;67.99;97066.59;5151532;27;42704;-86
2021/01/23 12:47:39;;;;;;;4.70;4.30;;;;;;;8.50;67.83;97049.03;5153007;27;42086;-86
2021/01/23 12:50:08;;;;;;;4.67;4.20;;;;;;;8.53;67.86;97053.22;5149604;27;40281;-82
2021/01/23 12:52:35;;;;;;;4.40;4.00;;;;;;;8.47;67.08;97037.88;5134840;27;40820;-83
2021/01/23 12:55:07;;;;;;;4.17;3.87;;;;;;;8.58;66.98;97037.84;5149845;27;43446;-84
2021/01/23 12:57:36;;;;;;;5.40;4.03;;;;;;;8.76;67.31;97049.50;5131504;27;42229;-85
2021/01/23 13:00:07;;;;;;;5.07;3.93;;;;;;;8.52;66.92;97004.06;5133502;27;39615;-88
2021/01/23 13:02:35;;;;;;;5.37;4.23;;;;;;;8.64;66.62;97019.72;5114156;27;40723;-80
2021/01/23 13:05:03;;;;;;;7.20;4.10;;;;;;;8.78;67.04;97036.97;5131276;27;43269;-82
2021/01/23 13:07:30;;;;;;;5.07;4.40;;;;;;;9.02;65.59;97054.38;5131025;27;41485;-87
2021/01/23 13:09:57;;;;;;;5.10;4.10;;;;;;;9.47;65.53;97042.50;5129344;27;39477;-82
2021/01/23 13:12:25;;;;;;;4.27;3.93;;;;;;;9.75;64.85;97032.16;5129729;27;40673;-84
2021/01/23 13:14:52;;;;;;;5.83;4.50;;;;;;;9.66;64.27;97024.06;5140645;27;43177;-84
2021/01/23 13:17:19;;;;;;;6.00;5.20;;;;;;;9.54;64.01;97040.97;5130057;27;41225;-86
2021/01/23 13:19:47;;;;;;;4.97;4.47;;;;;;;9.24;64.90;97017.25;5130569;27;38717;-84
2021/01/23 13:22:14;;;;;;;4.67;4.07;;;;;;;9.23;65.47;97032.25;5142302;27;42927;-87
2021/01/23 13:24:41;;;;;;;3.90;3.50;;;;;;;9.08;64.92;97032.72;5147293;27;42416;-87
2021/01/23 13:27:08;;;;;;;4.30;4.00;;;;;;;8.93;65.74;97027.78;5129330;27;43217;-84
2021/01/23 13:29:36;;;;;;;5.37;4.50;;;;;;;8.74;65.50;97011.84;5147678;27;39775;-84
2021/01/23 13:32:03;;;;;;;5.67;4.57;;;;;;;8.54;65.94;97004.75;5128723;27;41132;-82
2021/01/23 13:34:30;;;;;;;6.13;4.70;;;;;;;8.44;65.74;97017.03;5142411;27;42519;-84
2021/01/23 13:36:57;;;;;;;7.00;5.67;;;;;;;8.33;66.74;97019.72;5110664;27;42255;-81
2021/01/23 13:39:25;;;;;;;6.40;4.70;;;;;;;8.16;67.15;97008.72;5119557;27;41307;-84
2021/01/23 13:41:52;;;;;;;5.40;4.90;;;;;;;8.13;67.75;97019.56;5127467;27;41557;-85
2021/01/23 13:44:19;;;;;;;7.03;5.43;;;;;;;7.99;68.01;97001.38;5127818;27;42625;-88
2021/01/23 13:46:47;;;;;;;6.07;4.30;;;;;;;8.05;68.47;97010.56;5106321;27;40828;-83
2021/01/23 13:49:14;;;;;;;5.60;4.70;;;;;;;7.91;68.49;97003.81;5130377;27;39474;-83
2021/01/23 13:51:41;;;;;;;5.13;4.63;;;;;;;7.90;68.67;97017.97;5110181;27;41746;-85
2021/01/23 13:54:08;;;;;;;5.07;4.53;;;;;;;7.80;68.65;97019.63;5129380;27;42112;-84
2021/01/23 13:56:35;;;;;;;6.83;4.87;;;;;;;7.69;68.30;97022.28;5112877;27;41299;-86
2021/01/23 13:59:03;;;;;;;6.93;4.90;;;;;;;7.57;68.58;97022.31;5150158;27;39617;-88
2021/01/23 14:01:30;;;;;;;6.60;5.27;;;;;;;7.43;69.24;97003.31;5121013;27;40676;-86
2021/01/23 14:03:58;;;;;;;5.90;5.30;;;;;;;7.20;69.24;96970.91;5148846;27;41657;-85
2021/01/23 14:06:25;;;;;;;6.20;4.50;;;;;;;7.48;69.53;97020.41;5123968;27;41235;-85
2021/01/23 14:08:52;;;;;;;8.67;5.10;;;;;;;7.42;69.30;97013.00;5148583;27;39781;-82
2021/01/23 14:11:19;;;;;;;7.27;5.40;;;;;;;7.32;69.46;97016.47;5129816;27;42226;-84
2021/01/23 14:13:46;;;;;;;8.33;6.20;;;;;;;7.23;70.16;97012.78;5149339;27;43504;-84
2021/01/23 14:16:15;;;;;;;6.43;5.83;;;;;;;7.07;70.20;96991.25;5148584;27;42897;-84
2021/01/23 14:18:42;;;;;;;7.60;5.30;;;;;;;7.06;70.34;96989.56;5114951;27;38859;-83
2021/01/23 14:21:11;;;;;;;6.97;5.97;;;;;;;7.07;70.60;96985.97;5114494;27;41470;-87
2021/01/23 14:23:38;;;;;;;6.17;5.57;;;;;;;7.08;70.70;96985.84;5138853;27;42544;-88
2021/01/23 14:26:05;;;;;;;6.87;6.17;;;;;;;7.14;70.76;97002.97;5147581;27;41997;-86
2021/01/23 14:28:32;;;;;;;5.83;5.07;;;;;;;7.12;70.74;96994.38;5140766;27;40283;-85
2021/01/23 14:30:59;;;;;;;5.57;5.00;;;;;;;6.81;70.67;96951.16;5149071;27;42484;-84
2021/01/23 14:33:27;;;;;;;5.73;4.87;;;;;;;7.09;70.78;97005.13;5129745;27;42978;-84
2021/01/23 14:35:54;;;;;;;7.03;4.83;;;;;;;7.03;70.75;96995.09;5114292;27;42200;-84
2021/01/23 14:38:21;;;;;;;6.63;4.50;;;;;;;7.00;70.56;96998.78;5149272;27;39640;-86
2021/01/23 14:40:51;;;;;;;7.43;4.80;;;;;;;6.90;70.75;96989.09;5130799;27;42373;-83
2021/01/23 14:43:18;;;;;;;6.37;4.67;;;;;;;6.65;70.98;96969.94;5150286;27;42671;-84
2021/01/23 14:45:45;;;;;;;5.73;4.90;;;;;;;6.53;71.17;96944.59;5130852;27;41445;-85
2021/01/23 14:48:13;;;;;;;8.83;6.33;;;;;;;6.80;71.31;96987.16;5130676;27;40360;-85
2021/01/23 14:50:40;;;;;;;7.10;5.80;;;;;;;6.61;71.26;96963.25;5114378;27;40470;-87
2021/01/23 14:53:07;;;;;;;6.83;5.77;;;;;;;6.77;71.47;97000.56;5149283;27;42631;-83
2021/01/23 14:55:36;;;;;;;7.20;5.47;;;;;;;6.69;71.72;96996.84;5132571;27;41391;-90
2021/01/23 14:58:04;;;;;;;7.57;6.57;;;;;;;6.58;71.83;96983.66;5115523;27;40909;-85
2021/01/23 15:00:34;;;;;;;7.63;6.00;;;;;;;6.47;72.00;96966.94;5131965;27;41775;-87
2021/01/23 15:03:09;;;;;;;8.33;6.97;;;;;;;6.60;72.08;96998.38;5113559;27;42779;-86
2021/01/23 15:05:41;;;;;;;7.57;6.23;;;;;;;6.44;72.55;96984.72;5114214;27;42161;-83
2021/01/23 15:08:09;;;;;;;9.30;8.00;;;;;;;6.07;72.86;96932.28;5114134;27;39892;-87
2021/01/23 15:10:37;;;;;;;9.20;8.23;;;;;;;6.07;72.68;96941.97;5126585;27;42103;-85
2021/01/23 15:13:09;;;;;;;12.03;10.23;;;;;;;5.85;72.77;96926.94;5132407;27;41622;-85
2021/01/23 15:15:40;;;;;;;13.33;9.97;;;;;;;6.05;72.61;96980.69;5112648;27;43288;-86
2021/01/23 15:18:08;;;;;;;11.03;9.43;;;;;;;5.89;73.04;96962.59;5112713;27;40701;-87
2021/01/23 15:20:36;;;;;;;14.20;10.40;;;;;;;5.91;73.17;96973.81;5112083;27;41166;-81
2021/01/23 15:23:06;;;;;;;15.03;10.80;;;;;;;5.60;73.21;96941.03;5131266;27;42762;-81
2021/01/23 15:25:35;;;;;;;11.97;10.60;;;;;;;5.67;73.29;96954.56;5115166;27;41453;-85
2021/01/23 15:28:18;;;;;;;14.30;10.37;;;;;;;5.85;73.47;96989.97;5133499;27;40169;-83
2021/01/23 15:31:13;;;;;;;11.87;9.43;;;;;;;5.79;73.45;96982.56;5146659;27;41078;-84
2021/01/23 15:33:52;;;;;;;12.93;10.57;;;;;;;5.71;73.35;96961.25;5119000;27;43368;-85
2021/01/23 15:36:26;;;;;;;13.83;11.07;;;;;;;5.38;73.40;96912.91;5117650;27;41850;-88
2021/01/23 15:38:57;;;;;;;10.20;8.77;;;;;;;5.46;73.45;96924.63;5118672;27;39669;-82
2021/01/23 15:41:28;;;;;;;14.07;10.30;;;;;;;5.75;73.56;96978.47;5119142;27;41119;-87
2021/01/23 15:43:57;;;;;;;12.83;10.30;;;;;;;5.74;73.47;96976.78;5136246;27;42997;-85
2021/01/23 15:46:25;;;;;;;12.40;9.97;;;;;;;5.72;73.39;96969.03;5136259;27;41728;-89
2021/01/23 15:48:53;;;;;;;10.80;8.97;;;;;;;5.50;73.40;96931.31;5137745;27;40690;-84
2021/01/23 15:51:21;;;;;;;17.47;11.80;;;;;;;5.62;73.34;96947.03;5118997;27;42205;-85
2021/01/23 15:53:48;;;;;;;13.73;10.20;;;;;;;5.66;73.14;96968.66;5118504;27;41999;-84
2021/01/23 15:56:24;;;;;;;13.43;10.90;;;;;;;5.64;73.29;96970.53;5135018;27;43078;-89
2021/01/23 15:59:08;;;;;;;17.83;11.50;;;;;;;5.23;73.84;96911.38;5118709;27;38964;-85
2021/01/23 16:01:38;;;;;;;14.33;11.30;;;;;;;5.26;73.86;96918.19;5118953;27;40914;-88
2021/01/23 16:04:13;;;;;;;14.03;11.50;;;;;;;5.55;73.91;96951.06;5119061;27;41786;-86
2021/01/23 16:06:44;;;;;;;12.67;10.47;;;;;;;5.65;73.81;96965.19;5123217;27;41940;-87
2021/01/23 16:09:17;;;;;;;14.80;12.03;;;;;;;5.42;73.51;96924.03;5135624;27;40432;-85
2021/01/23 16:11:48;;;;;;;16.10;12.30;;;;;;;5.49;74.14;96940.16;5135906;27;40596;-87
2021/01/23 16:14:22;;;;;;;13.77;10.80;;;;;;;5.23;73.91;96903.50;5129455;27;43427;-85
2021/01/23 16:16:58;;;;;;;12.83;10.80;;;;;;;5.25;74.17;96906.88;5134982;27;41961;-88
2021/01/23 16:19:25;;;;;;;11.30;10.10;;;;;;;5.40;74.23;96933.78;5117618;27;39496;-87
2021/01/23 16:21:54;;;;;;;13.13;10.67;;;;;;;5.29;73.97;96925.84;5115777;27;43575;-86
2021/01/23 16:24:23;;;;;;;11.30;10.10;;;;;;;5.14;74.27;96898.94;5118315;27;41551;-85
2021/01/23 16:26:53;;;;;;;11.73;9.77;;;;;;;5.35;74.13;96934.13;5118097;27;41330;-86
2021/01/23 16:29:21;;;;;;;10.80;8.87;;;;;;;5.40;74.16;96947.75;5117693;27;41162;-85
2021/01/23 16:31:48;;;;;;;11.80;9.57;;;;;;;5.24;73.91;96912.22;5117539;27;40948;-83
2021/01/23 16:34:20;;;;;;;13.97;10.80;;;;;;;5.41;74.04;96944.19;5116050;27;43180;-85
2021/01/23 16:36:47;;;;;;;12.77;10.40;;;;;;;5.37;74.39;96937.47;5116742;27;43905;-88
2021/01/23 16:39:17;;;;;;;10.37;9.27;;;;;;;5.28;74.04;96929.44;5133879;27;41091;-86
2021/01/23 16:41:44;;;;;;;13.97;11.53;;;;;;;4.97;74.57;96891.41;5133728;27;41448;-80
2021/01/23 16:44:11;;;;;;;11.80;10.60;;;;;;;5.25;74.95;96948.00;5117935;27;42826;-87
2021/01/23 16:46:47;;;;;;;12.70;10.10;;;;;;;5.28;74.93;96959.13;5117830;27;43711;-85
2021/01/23 16:49:29;;;;;;;13.23;10.10;;;;;;;5.19;75.10;96941.44;5118528;27;39253;-89
2021/01/23 16:52:09;;;;;;;12.37;11.10;;;;;;;5.08;75.05;96920.34;5117478;27;40589;-89
2021/01/23 16:54:39;;;;;;;13.87;11.80;;;;;;;4.94;75.30;96910.88;5117912;27;41730;-88
2021/01/23 16:57:25;;;;;;;14.60;11.73;;;;;;;5.12;75.57;96948.03;5144683;27;42179;-87
2021/01/23 17:00:11;;;;;;;14.67;12.47;;;;;;;4.83;75.46;96897.63;5134997;27;40477;-84
2021/01/23 17:02:47;;;;;;;16.23;12.77;;;;;;;4.60;75.59;96862.56;5135820;27;40681;-87
2021/01/23 17:05:17;;;;;;;18.60;15.30;;;;;;;4.68;75.57;96875.16;5135380;27;43747;-86
2021/01/23 17:07:44;;;;;;;17.40;13.47;;;;;;;4.93;75.86;96911.81;5134740;27;44044;-89
2021/01/23 17:10:29;;;;;;;20.23;13.87;;;;;;;4.79;76.07;96887.50;5133193;27;39180;-85
2021/01/23 17:13:03;;;;;;;17.10;14.70;;;;;;;4.95;76.04;96917.75;5135858;27;42097;-88
2021/01/23 17:15:30;;;;;;;14.83;13.23;;;;;;;4.51;75.97;96842.25;5135299;27;42650;-85
2021/01/23 17:17:59;;;;;;;18.87;14.57;;;;;;;4.82;76.37;96895.16;5135084;27;41777;-84
2021/01/23 17:20:48;;;;;;;18.37;14.13;;;;;;;4.84;76.92;96908.97;5136304;27;41199;-85
2021/01/23 17:23:21;;;;;;;26.27;17.27;;;;;;;4.82;76.42;96882.03;5134173;27;41536;-87
2021/01/23 17:25:49;;;;;;;27.23;18.27;;;;;;;4.76;76.63;96859.69;5127246;27;42015;-83
2021/01/23 17:28:19;;;;;;;20.40;15.53;;;;;;;4.52;76.57;96804.63;5150119;27;42288;-83
2021/01/23 17:30:49;;;;;;;19.63;14.10;;;;;;;4.50;76.47;96792.56;5126712;27;41269;-88
2021/01/23 17:33:17;;;;;;;15.10;11.73;;;;;;;4.93;76.92;96874.25;5138766;27;41604;-88
2021/01/23 17:35:45;;;;;;;15.80;12.47;;;;;;;4.87;76.88;96869.44;5139286;27;41740;-86
2021/01/23 17:38:12;;;;;;;15.83;11.97;;;;;;;4.74;77.09;96860.75;5122053;27;42873;-83
2021/01/23 17:40:48;;;;;;;18.63;12.50;;;;;;;4.68;77.19;96857.63;5121396;27;39572;-86
2021/01/23 17:43:16;;;;;;;16.47;12.90;;;;;;;4.34;77.56;96816.38;5120670;27;40183;-84
